createdAt,value
2022-08-05T09:14:56.855Z,97564.55
2022-08-05T09:17:40.441Z,97551.38
2022-08-05T09:20:08.346Z,97548.48
2022-08-05T09:23:43.674Z,97546.40
2022-08-05T09:26:52.037Z,97548.73
2022-08-05T09:30:06.681Z,97540.20
2022-08-05T09:33:17.098Z,97539.48
2022-08-05T09:36:54.430Z,97534.73
2022-08-05T09:39:52.027Z,97529.86
2022-08-05T09:42:28.429Z,97527.04
2022-08-05T09:46:04.552Z,97529.63
2022-08-05T09:47:59.073Z,97528.52
2022-08-05T09:50:49.892Z,97524.30
2022-08-05T09:53:26.175Z,97524.55
2022-08-05T09:56:16.905Z,97520.82
2022-08-05T09:59:08.890Z,97523.48
2022-08-05T10:02:29.420Z,97521.91
2022-08-05T10:05:23.553Z,97516.09
2022-08-05T10:08:36.381Z,97509.73
2022-08-05T10:11:37.422Z,97512.19
2022-08-05T10:14:38.838Z,97507.38
2022-08-05T10:17:37.827Z,97507.11
2022-08-05T10:20:28.763Z,97501.19
2022-08-05T10:23:21.789Z,97492.95
2022-08-05T10:26:05.354Z,97490.61
2022-08-05T10:28:49.459Z,97488.90
2022-08-05T10:32:52.274Z,97487.36
2022-08-05T10:34:31.203Z,97485.41
2022-08-05T10:37:11.006Z,97480.20
2022-08-05T10:40:17.653Z,97482.08
2022-08-05T10:43:12.609Z,97479.04
2022-08-05T10:46:06.652Z,97473.52
2022-08-05T10:49:10.447Z,97471.02
2022-08-05T10:52:10.555Z,97474.89
2022-08-05T10:55:05.326Z,97471.42
2022-08-05T10:57:40.673Z,97464.69
2022-08-05T11:00:22.800Z,97463.76
2022-08-05T11:03:25.053Z,97462.74
2022-08-05T11:06:04.497Z,97465.27
2022-08-05T11:09:24.514Z,97463.36
2022-08-05T11:12:54.279Z,97462.48
2022-08-05T11:15:59.247Z,97463.36
2022-08-05T11:18:34.046Z,97459.89
2022-08-05T11:21:11.463Z,97461.94
2022-08-05T11:24:05.020Z,97465.64
2022-08-05T11:27:29.062Z,97464.42
2022-08-05T11:30:36.982Z,97455.95
2022-08-05T11:33:48.207Z,97455.02
2022-08-05T11:36:33.921Z,97449.28
2022-08-05T11:39:04.886Z,97443.88
2022-08-05T11:42:19.674Z,97438.16
2022-08-05T11:44:53.751Z,97435.92
2022-08-05T11:47:49.751Z,97431.41
2022-08-05T11:50:38.742Z,97426.86
2022-08-05T11:53:06.383Z,97426.39
2022-08-05T11:55:52.097Z,97429.71
2022-08-05T11:58:41.358Z,97428.39
2022-08-05T12:01:22.124Z,97425.73
2022-08-05T12:03:57.424Z,97427.00
2022-08-05T12:06:35.892Z,97426.66
2022-08-05T12:09:38.485Z,97421.84
2022-08-05T12:12:06.079Z,97421.02
2022-08-05T12:14:52.693Z,97419.43
2022-08-05T12:18:10.224Z,97415.21
2022-08-05T12:20:33.436Z,97415.46
2022-08-05T12:23:11.979Z,97412.60
2022-08-05T12:25:53.390Z,97406.09
2022-08-05T12:28:34.660Z,97404.58
2022-08-05T12:31:32.543Z,97403.09
2022-08-05T12:34:03.035Z,97407.06
2022-08-05T12:36:43.588Z,97402.48
2022-08-05T12:39:38.453Z,97400.05
2022-08-05T12:42:17.858Z,97391.95
2022-08-05T12:44:50.412Z,97388.98
2022-08-05T12:47:36.548Z,97385.47
2022-08-05T12:50:36.796Z,97384.54
2022-08-05T12:53:06.862Z,97388.38
2022-08-05T12:55:35.260Z,97380.09
2022-08-05T12:58:37.994Z,97376.14
2022-08-05T13:02:01.312Z,97371.52
2022-08-05T13:03:51.535Z,97379.86
2022-08-05T13:06:51.696Z,97373.77
2022-08-05T13:09:27.917Z,97368.23
2022-08-05T13:12:16.105Z,97367.63
2022-08-05T13:15:06.802Z,97365.55
2022-08-05T13:17:41.815Z,97367.31
2022-08-05T13:20:24.644Z,97367.96
2022-08-05T13:23:22.027Z,97367.48
2022-08-05T13:26:37.494Z,97357.67
2022-08-05T13:29:10.262Z,97357.80
2022-08-05T13:32:09.486Z,97359.35
2022-08-05T13:34:56.498Z,97357.89
2022-08-05T13:37:34.371Z,97361.39
2022-08-05T13:40:24.522Z,97361.32
2022-08-05T13:43:01.040Z,97357.25
2022-08-05T13:45:38.475Z,97353.32
2022-08-05T13:48:57.874Z,97348.73
2022-08-05T13:51:13.020Z,97350.83
2022-08-05T13:53:48.516Z,97342.14
2022-08-05T13:56:18.806Z,97341.35
2022-08-05T13:58:54.684Z,97337.73
2022-08-05T14:01:44.208Z,97332.75
2022-08-05T14:04:28.091Z,97334.02
2022-08-05T14:06:58.878Z,97331.40
2022-08-05T14:09:46.221Z,97326.09
2022-08-05T14:12:32.517Z,97322.95
2022-08-05T14:16:03.795Z,97319.49
2022-08-05T14:17:57.755Z,97322.52
2022-08-05T14:20:31.876Z,97314.88
2022-08-05T14:23:04.988Z,97314.34
2022-08-05T14:26:03.186Z,97314.25
2022-08-05T14:28:52.071Z,97316.70
2022-08-05T14:32:03.673Z,97314.53
2022-08-05T14:34:11.842Z,97314.28
2022-08-05T14:36:39.104Z,97311.75
2022-08-05T14:39:07.676Z,97308.55
2022-08-05T14:41:42.875Z,97309.53
2022-08-05T14:44:30.223Z,97308.98
2022-08-05T14:46:58.228Z,97305.98
2022-08-05T14:49:25.743Z,97305.98
2022-08-05T14:52:36.283Z,97308.38
2022-08-05T14:55:04.587Z,97303.05
2022-08-05T14:57:53.892Z,97295.36
2022-08-05T15:00:20.931Z,97293.69
2022-08-05T15:02:55.685Z,97294.27
2022-08-05T15:06:13.128Z,97290.80
2022-08-05T15:08:58.156Z,97289.77
2022-08-05T15:11:08.308Z,97286.61
2022-08-05T15:13:46.059Z,97281.22
2022-08-05T15:16:13.474Z,97284.80
2022-08-05T15:18:42.259Z,97283.22
2022-08-05T15:21:14.797Z,97277.44
2022-08-05T15:23:47.922Z,97270.99
2022-08-05T15:26:16.764Z,97270.02
2022-08-05T15:28:59.158Z,97266.84
2022-08-05T15:31:34.779Z,97266.36
2022-08-05T15:34:18.524Z,97267.90
2022-08-05T15:36:50.969Z,97264.20
2022-08-05T15:41:03.936Z,97260.29
2022-08-05T15:42:50.388Z,97262.85
2022-08-05T15:44:54.383Z,97259.57
2022-08-05T15:47:23.627Z,97261.30
2022-08-05T15:49:56.720Z,97262.42
2022-08-05T15:52:29.338Z,97262.39
2022-08-05T15:55:16.438Z,97260.56
2022-08-05T15:57:44.989Z,97255.58
2022-08-05T16:00:12.785Z,97255.04
2022-08-05T16:02:44.849Z,97256.79
2022-08-05T16:05:13.369Z,97252.77
2022-08-05T16:07:46.458Z,97254.74
2022-08-05T16:10:25.313Z,97259.50
2022-08-05T16:12:52.603Z,97253.53
2022-08-05T16:15:23.454Z,97247.92
2022-08-05T16:17:57.310Z,97251.70
2022-08-05T16:20:25.556Z,97247.65
2022-08-05T16:22:58.755Z,97249.33
2022-08-05T16:25:34.200Z,97249.78
2022-08-05T16:28:05.865Z,97250.02
2022-08-05T16:30:36.372Z,97250.73
2022-08-05T16:33:04.417Z,97253.44
2022-08-05T16:35:43.070Z,97252.98
2022-08-05T16:38:24.470Z,97250.20
2022-08-05T16:41:00.259Z,97252.34
2022-08-05T16:43:35.272Z,97256.19
2022-08-05T16:46:23.774Z,97262.29
2022-08-05T16:48:53.665Z,97255.98
2022-08-05T16:51:24.084Z,97259.58
2022-08-05T16:54:05.025Z,97261.35
2022-08-05T16:56:41.460Z,97257.36
2022-08-05T16:59:25.319Z,97258.61
2022-08-05T17:01:57.316Z,97253.98
2022-08-05T17:04:26.860Z,97255.95
2022-08-05T17:07:11.365Z,97259.09
2022-08-05T17:09:59.256Z,97261.44
2022-08-05T17:12:51.384Z,97260.84
2022-08-05T17:15:19.911Z,97263.45
2022-08-05T17:17:54.479Z,97268.23
2022-08-05T17:20:26.588Z,97267.97
2022-08-05T17:22:55.658Z,97272.95
2022-08-05T17:25:39.488Z,97273.11
2022-08-05T17:28:15.415Z,97277.35
2022-08-05T17:30:51.877Z,97282.66
2022-08-05T17:33:20.773Z,97285.57
2022-08-05T17:36:08.755Z,97283.09
2022-08-05T17:38:36.638Z,97280.02
2022-08-05T17:41:03.391Z,97283.39
2022-08-05T17:43:53.147Z,97288.05
2022-08-05T17:46:37.390Z,97289.88
